Humidity-temperature Sensor

Selected Measurement Type: Relative Humidity

 
Relative Humidity [%]     6 entries per hour
Showing data from 4/17/2016 (00:00:00 Z) to 4/16/2016 (00:01:00 Z)
Previous Next [ Day | 3-Days | 7-Days ]
First Last
Prev [ Day | 3-Days | 7-Days ] Next
First Last

Start Time:     :
End Time:     :     
Time (in GMT) :00 :50 :40 :30 :20 :10
Previous Next [ Day | 3-Days | 7-Days ]
First Last
Prev [ Day | 3-Days | 7-Days ] Next
First Last


123 => good data
MM => data is determined as missing
-- => data not received/configured
Back to Top Back to Top
4/17/2016 00:00 to 23:10 81.48 81.78 81.28 80.74 80.84 80.80
4/16/2016 23:00 to 22:10 80.16 80.00 79.36 80.76 80.86 80.32
4/16/2016 22:00 to 21:10 80.02 80.04 80.04 80.18 80.08 80.62
4/16/2016 21:00 to 20:10 81.08 80.66 79.96 79.92 80.02 80.76
4/16/2016 20:00 to 19:10 81.10 80.50 81.34 80.60 80.54 80.30
4/16/2016 19:00 to 18:10 79.50 80.52 80.40 80.88 79.54 80.16
4/16/2016 18:00 to 17:10 79.98 80.02 80.42 80.42 80.22 80.12
4/16/2016 17:00 to 16:10 80.40 79.82 79.96 80.68 80.50 79.62
4/16/2016 16:00 to 15:10 80.40 80.86 80.50 80.98 80.80 80.70
4/16/2016 15:00 to 14:10 80.50 81.06 80.44 80.34 80.00 81.22
4/16/2016 14:00 to 13:10 80.92 81.50 82.29 81.20 81.60 81.38
4/16/2016 13:00 to 12:10 81.18 81.54 81.48 80.62 82.53 83.05
4/16/2016 12:00 to 11:10 81.12 82.99 83.23 82.77 81.78 82.97
4/16/2016 11:00 to 10:10 82.95 82.51 81.40 81.70 81.10 81.20
4/16/2016 10:00 to 9:10 81.36 83.61 81.78 82.45 82.41 81.48
4/16/2016 09:00 to 8:10 81.50 82.23 83.47 81.50 81.48 82.23
4/16/2016 08:00 to 7:10 82.41 82.39 81.66 82.19 81.22 82.23
4/16/2016 07:00 to 6:10 82.73 83.43 82.73 82.45 82.35 80.14
4/16/2016 06:00 to 5:10 81.50 83.27 84.01 86.84 87.06 87.54
4/16/2016 05:00 to 4:10 88.58 89.00 85.27 86.37 86.86 86.84
4/16/2016 04:00 to 3:10 88.20 88.86 88.26 88.54 88.92 86.84
4/16/2016 03:00 to 2:10 89.56 88.44 89.10 88.00 88.08 88.26
4/16/2016 02:00 to 1:10 89.16 85.79 86.37 86.03 84.95 85.21
4/16/2016 01:00 to 0:10 85.97 87.18 88.64 86.51 85.57 85.27